Terminal Aerodrome Forecast
Issued by NWS Shreveport, LA

Home | Current Version | Previous Version | Text Only | Print | Product List | Glossary On
Versions: 1 2 3 4 5 6 7 8 9 10 11 12 13 14 15 16 17 18 19 20
876
FTUS44 KSHV 012355
TAFTXK
TAF
KTXK 012355Z 0200/0224 36005KT P6SM FEW050
     FM020400 35005KT P6SM BKN045
     FM020900 VRB04KT P6SM VCTS BKN040CB
     FM021500 02008KT P6SM BKN040
     FM021800 02007KT P6SM SCT040=

USA.gov is the U.S. government's official web portal to all federal, state and local government web resources and services.